首页
METAR-TAF:

METAR-TAF

机场 :

布拉提斯拉瓦機場

布拉迪斯拉发, 斯洛伐克

纬度: 48-12N, 经度: 017-12E, 海拔: 133米

当前天气观测

该预报发布于33分钟前的21:30 UTC
风速13节,风向南转南东
温度 5°C
湿度 56%
气压 996 hPa
能见度10公里或以上
1500米以下无云,无积雨云

METAR: LZIB 272130Z 15013KT CAVOK 05/M03 Q0996

时间: 23:03 (22:03 UTC)

预报

该预报发布于5小时和3分钟前的17:00 UTC
预报有效从27日的 18点(UTC)到 28日的 18点(UTC)
风速14节,风向南转南东
能见度10公里或以上
1500米以下无云,无积雨云
短暂存在
从 27日的 19点(UTC)到 28日的 00点(UTC)
风速15节,风向,有时为25节阵风
成为
从 28日的 00点(UTC)到 28日的 02点(UTC)
风速16节,风向西南
能见度10公里或以上
小雨
成为
从 28日的 04点(UTC)到 28日的 06点(UTC)
风速20节,风向西北
散云层高于2500英尺
多云层高于4500英尺
短暂存在
从 28日的 04点(UTC)到 28日的 08点(UTC)
风速20节,风向西北,有时为30节阵风
能見度: 5000
多云层高于1300英尺
阴天层高于4000英尺
雪, 雨
短暂存在
从 28日的 08点(UTC)到 28日的 13点(UTC)
风速25节,风向北转西北,有时为40节阵风
多云层高于2500英尺
少量云层高于3000英尺, 塔状积云.
小阵雨
成为
从 28日的 15点(UTC)到 28日的 17点(UTC)
风速10节,风向西北
少量云层高于4000英尺

TAF: LZIB 271700Z 2718/2818 16014KT CAVOK TEMPO 2719/2800 18015G25KT BECMG 2800/2802 22016KT 9999 -RA NSC BECMG 2804/2806 31020KT SCT025 BKN045 TEMPO 2804/2808 32020G30KT 5000 SNRA BKN013 OVC040 TEMPO 2808/2813 33025G40KT -SHRA BKN025 FEW030TCU BECMG 2815/2817 31010KT FEW040

超过4000个机场的气象观测和天气预报(METAR&TAF报告)。

可查询的气象台以黄色和红色小点在地图上表示。

将鼠标移到小点上方,可查看气象台名称。

然后点击查看天气观测和预报。

如需切换地图:点击带黑十字的绿色按钮放大地图;点击带横线的绿色按钮缩小地图;或者点击绿色箭头查看邻近地区的地图。


METAR-TAF: